createdAt,value
2017-09-05T00:00:16.260Z,1013.7
2017-09-05T00:01:24.903Z,1013.73
2017-09-05T00:02:34.808Z,1013.71
2017-09-05T00:03:43.779Z,1013.73
2017-09-05T00:04:53.055Z,1013.71
2017-09-05T00:06:01.710Z,1013.72
2017-09-05T00:07:11.300Z,1013.73
2017-09-05T00:08:20.252Z,1013.78
2017-09-05T00:09:29.530Z,1013.75
2017-09-05T00:10:38.191Z,1013.77
2017-09-05T00:11:46.872Z,1013.73
2017-09-05T00:12:55.684Z,1013.74
2017-09-05T00:14:04.659Z,1013.77
2017-09-05T00:15:13.627Z,1013.75
2017-09-05T00:16:23.213Z,1013.77
2017-09-05T00:17:31.870Z,1013.75
2017-09-05T00:18:41.300Z,1013.75
2017-09-05T00:19:50.283Z,1013.82
2017-09-05T00:20:59.278Z,1013.81
2017-09-05T00:22:08.570Z,1013.83
2017-09-05T00:23:17.528Z,1013.84
2017-09-05T00:24:26.639Z,1013.85
2017-09-05T00:25:35.602Z,1013.85
2017-09-05T00:26:44.572Z,1013.89
2017-09-05T00:27:53.216Z,1013.87
2017-09-05T00:29:02.178Z,1013.86
2017-09-05T00:30:10.823Z,1013.78
2017-09-05T00:31:19.480Z,1013.84
2017-09-05T00:32:28.128Z,1013.83
2017-09-05T00:33:37.102Z,1013.81
2017-09-05T00:34:46.686Z,1013.85
2017-09-05T00:35:55.344Z,1013.85
2017-09-05T00:37:03.992Z,1013.81
2017-09-05T00:38:12.969Z,1013.88
2017-09-05T00:39:21.943Z,1013.9
2017-09-05T00:40:31.523Z,1013.88
2017-09-05T00:41:40.233Z,1013.84
2017-09-05T00:42:49.203Z,1013.87
2017-09-05T00:43:57.854Z,1013.89
2017-09-05T00:45:06.814Z,1013.92
2017-09-05T00:46:15.769Z,1013.92
2017-09-05T00:47:25.087Z,1013.9
2017-09-05T00:48:33.740Z,1013.9
2017-09-05T00:49:43.016Z,1013.88
2017-09-05T00:50:51.988Z,1013.89
2017-09-05T00:52:00.947Z,1013.87
2017-09-05T00:53:09.971Z,1013.85
2017-09-05T00:54:18.959Z,1013.85
2017-09-05T00:55:28.240Z,1013.89
2017-09-05T00:56:36.892Z,1013.88
2017-09-05T00:57:46.175Z,1013.86
2017-09-05T00:58:55.600Z,1013.86
2017-09-05T01:00:04.873Z,1013.86
2017-09-05T01:01:14.157Z,1013.88
2017-09-05T01:02:23.428Z,1013.9
2017-09-05T01:03:32.083Z,1013.86
2017-09-05T01:04:41.152Z,1013.91
2017-09-05T01:05:50.124Z,1013.88
2017-09-05T01:06:59.090Z,1013.86
2017-09-05T01:08:08.365Z,1013.89
2017-09-05T01:09:17.683Z,1013.94
2017-09-05T01:10:27.383Z,1013.94
2017-09-05T01:11:36.654Z,1013.92
2017-09-05T01:12:46.266Z,1013.93
2017-09-05T01:13:55.238Z,1013.91
2017-09-05T01:15:04.828Z,1013.91
2017-09-05T01:16:14.098Z,1013.96
2017-09-05T01:17:22.758Z,1013.99
2017-09-05T01:18:31.733Z,1013.98
2017-09-05T01:19:41.016Z,1013.97
2017-09-05T01:20:49.671Z,1013.99
2017-09-05T01:21:59.052Z,1014.03
2017-09-05T01:23:08.014Z,1014.04
2017-09-05T01:24:16.975Z,1014.03
2017-09-05T01:25:26.256Z,1014.05
2017-09-05T01:26:34.900Z,1014.02
2017-09-05T01:27:44.906Z,1014.04
2017-09-05T01:28:53.608Z,1014.05
2017-09-05T01:30:02.258Z,1014.03
2017-09-05T01:31:10.902Z,1014
2017-09-05T01:32:19.549Z,1014.03
2017-09-05T01:33:28.839Z,1013.97
2017-09-05T01:34:37.800Z,1014
2017-09-05T01:35:46.449Z,1014.01
2017-09-05T01:36:55.419Z,1013.98
2017-09-05T01:38:04.074Z,1014
2017-09-05T01:39:13.720Z,1013.98
2017-09-05T01:40:22.683Z,1013.96
2017-09-05T01:41:31.646Z,1013.97
2017-09-05T01:42:40.951Z,1013.99
2017-09-05T01:43:50.215Z,1013.96
2017-09-05T01:44:58.960Z,1013.96
2017-09-05T01:46:07.927Z,1013.98
2017-09-05T01:47:17.210Z,1013.9
2017-09-05T01:48:26.177Z,1013.91
2017-09-05T01:49:35.153Z,1013.93
2017-09-05T01:50:44.936Z,1013.9
2017-09-05T01:51:54.215Z,1013.89
2017-09-05T01:53:03.176Z,1013.83
2017-09-05T01:54:12.148Z,1013.84
2017-09-05T01:55:21.440Z,1013.81
2017-09-05T01:56:30.416Z,1013.8
2017-09-05T01:57:39.705Z,1013.82
2017-09-05T01:58:48.985Z,1013.78
2017-09-05T01:59:57.943Z,1013.75
2017-09-05T02:01:07.223Z,1013.71
2017-09-05T02:02:16.278Z,1013.68
2017-09-05T02:03:25.874Z,1013.7
2017-09-05T02:04:34.531Z,1013.69
2017-09-05T02:05:43.492Z,1013.67
2017-09-05T02:06:52.197Z,1013.69
2017-09-05T02:08:01.631Z,1013.68
2017-09-05T02:09:10.603Z,1013.69
2017-09-05T02:10:19.872Z,1013.74
2017-09-05T02:11:29.470Z,1013.69
2017-09-05T02:12:38.764Z,1013.71
2017-09-05T02:13:47.732Z,1013.69
2017-09-05T02:14:57.320Z,1013.71
2017-09-05T02:16:06.605Z,1013.66
2017-09-05T02:17:15.582Z,1013.62
2017-09-05T02:18:24.225Z,1013.6
2017-09-05T02:19:32.980Z,1013.63
2017-09-05T02:20:41.626Z,1013.62
2017-09-05T02:21:50.270Z,1013.59
2017-09-05T02:22:58.920Z,1013.59
2017-09-05T02:24:07.568Z,1013.57
2017-09-05T02:25:16.893Z,1013.53
2017-09-05T02:26:25.854Z,1013.55
2017-09-05T02:27:35.132Z,1013.53
2017-09-05T02:28:44.413Z,1013.53
2017-09-05T02:29:53.683Z,1013.51
2017-09-05T02:31:03.418Z,1013.49
2017-09-05T02:32:12.353Z,1013.48
2017-09-05T02:33:21.324Z,1013.51
2017-09-05T02:34:30.290Z,1013.5
2017-09-05T02:35:39.570Z,1013.49
2017-09-05T02:36:48.651Z,1013.49
2017-09-05T02:37:57.302Z,1013.55
2017-09-05T02:39:05.954Z,1013.55
2017-09-05T02:40:15.228Z,1013.52
2017-09-05T02:41:24.515Z,1013.5
2017-09-05T02:42:34.218Z,1013.51
2017-09-05T02:43:43.488Z,1013.51
2017-09-05T02:44:52.448Z,1013.48
2017-09-05T02:46:01.134Z,1013.48
2017-09-05T02:47:09.778Z,1013.54
2017-09-05T02:48:19.442Z,1013.54
2017-09-05T02:49:28.091Z,1013.53
2017-09-05T02:50:37.685Z,1013.55
2017-09-05T02:51:46.658Z,1013.54
2017-09-05T02:52:55.619Z,1013.54
2017-09-05T02:54:05.098Z,1013.53
2017-09-05T02:55:14.687Z,1013.59
2017-09-05T02:56:23.655Z,1013.54
2017-09-05T02:57:32.306Z,1013.52
2017-09-05T02:58:41.278Z,1013.53
2017-09-05T02:59:50.658Z,1013.5
2017-09-05T03:00:59.612Z,1013.47
2017-09-05T03:02:08.876Z,1013.52
2017-09-05T03:03:18.151Z,1013.51
2017-09-05T03:04:27.425Z,1013.46
2017-09-05T03:05:36.798Z,1013.52
2017-09-05T03:06:45.763Z,1013.48
2017-09-05T03:07:54.730Z,1013.47
2017-09-05T03:09:03.700Z,1013.49
2017-09-05T03:10:12.670Z,1013.45
2017-09-05T03:11:22.051Z,1013.42
2017-09-05T03:12:31.645Z,1013.42
2017-09-05T03:13:40.306Z,1013.48
2017-09-05T03:14:49.285Z,1013.46
2017-09-05T03:15:58.239Z,1013.52
2017-09-05T03:17:07.626Z,1013.52
2017-09-05T03:18:17.537Z,1013.53
2017-09-05T03:19:26.493Z,1013.52
2017-09-05T03:20:35.142Z,1013.5
2017-09-05T03:21:44.107Z,1013.5
2017-09-05T03:22:53.527Z,1013.47
2017-09-05T03:24:02.169Z,1013.49
2017-09-05T03:25:11.129Z,1013.47
2017-09-05T03:26:20.090Z,1013.49
2017-09-05T03:27:29.671Z,1013.49
2017-09-05T03:28:38.315Z,1013.53
2017-09-05T03:29:46.965Z,1013.52
2017-09-05T03:30:56.245Z,1013.48
2017-09-05T03:32:05.849Z,1013.4
2017-09-05T03:33:15.167Z,1013.41
2017-09-05T03:34:24.133Z,1013.44
2017-09-05T03:35:32.787Z,1013.44
2017-09-05T03:36:42.062Z,1013.5
2017-09-05T03:37:51.333Z,1013.48
2017-09-05T03:39:00.300Z,1013.46
2017-09-05T03:40:08.948Z,1013.48
2017-09-05T03:41:17.601Z,1013.49
2017-09-05T03:42:26.264Z,1013.48
2017-09-05T03:43:35.859Z,1013.48
2017-09-05T03:44:44.835Z,1013.45
2017-09-05T03:45:53.532Z,1013.39
2017-09-05T03:47:02.830Z,1013.43
2017-09-05T03:48:11.792Z,1013.43
2017-09-05T03:49:20.445Z,1013.44
2017-09-05T03:50:29.406Z,1013.43
2017-09-05T03:51:38.852Z,1013.46
2017-09-05T03:52:47.814Z,1013.49
2017-09-05T03:53:57.402Z,1013.52
2017-09-05T03:55:06.685Z,1013.45
2017-09-05T03:56:15.327Z,1013.49
2017-09-05T03:57:24.335Z,1013.48
2017-09-05T03:58:33.295Z,1013.49
2017-09-05T03:59:42.565Z,1013.46
2017-09-05T04:00:51.848Z,1013.5
2017-09-05T04:02:00.828Z,1013.49
2017-09-05T04:03:10.247Z,1013.49
2017-09-05T04:04:19.851Z,1013.48
2017-09-05T04:05:28.836Z,1013.5
2017-09-05T04:06:37.822Z,1013.46
2017-09-05T04:07:46.474Z,1013.44
2017-09-05T04:08:55.900Z,1013.42
2017-09-05T04:10:04.903Z,1013.42
2017-09-05T04:11:13.861Z,1013.42
2017-09-05T04:12:22.516Z,1013.43
2017-09-05T04:13:31.794Z,1013.43
2017-09-05T04:14:40.558Z,1013.44
2017-09-05T04:15:49.193Z,1013.47
2017-09-05T04:16:57.856Z,1013.43
2017-09-05T04:18:06.625Z,1013.46
2017-09-05T04:19:15.584Z,1013.44
2017-09-05T04:20:25.003Z,1013.41
2017-09-05T04:21:33.971Z,1013.44
2017-09-05T04:22:43.244Z,1013.42
2017-09-05T04:23:52.551Z,1013.47
2017-09-05T04:25:01.815Z,1013.48
2017-09-05T04:26:10.999Z,1013.5
2017-09-05T04:27:19.986Z,1013.46
2017-09-05T04:28:29.261Z,1013.5
2017-09-05T04:29:38.638Z,1013.48
2017-09-05T04:30:47.933Z,1013.52
2017-09-05T04:31:57.079Z,1013.46
2017-09-05T04:33:05.740Z,1013.47
2017-09-05T04:34:15.042Z,1013.46
2017-09-05T04:35:23.727Z,1013.45
2017-09-05T04:36:32.775Z,1013.48
2017-09-05T04:37:41.586Z,1013.51
2017-09-05T04:38:50.549Z,1013.52
2017-09-05T04:39:59.193Z,1013.53
2017-09-05T04:41:08.159Z,1013.55
2017-09-05T04:42:17.145Z,1013.54
2017-09-05T04:43:26.200Z,1013.57
2017-09-05T04:44:35.489Z,1013.59
2017-09-05T04:45:44.453Z,1013.57
2017-09-05T04:46:53.116Z,1013.59
2017-09-05T04:48:01.774Z,1013.6
2017-09-05T04:49:11.049Z,1013.64
2017-09-05T04:50:20.646Z,1013.62
2017-09-05T04:51:29.626Z,1013.62
2017-09-05T04:52:38.282Z,1013.6
2017-09-05T04:53:46.957Z,1013.63
2017-09-05T04:54:56.470Z,1013.61
2017-09-05T04:56:05.440Z,1013.55
2017-09-05T04:57:14.410Z,1013.5
2017-09-05T04:58:23.044Z,1013.54
2017-09-05T04:59:31.699Z,1013.51
2017-09-05T05:00:41.029Z,1013.49
2017-09-05T05:01:50.303Z,1013.5
2017-09-05T05:02:59.577Z,1013.49
2017-09-05T05:04:09.186Z,1013.51
2017-09-05T05:05:18.153Z,1013.5
2017-09-05T05:06:27.267Z,1013.49
2017-09-05T05:07:36.228Z,1013.51
2017-09-05T05:08:45.176Z,1013.47
2017-09-05T05:09:53.827Z,1013.48
2017-09-05T05:11:02.499Z,1013.49
2017-09-05T05:12:11.815Z,1013.53
2017-09-05T05:13:20.838Z,1013.5
2017-09-05T05:14:30.113Z,1013.52
2017-09-05T05:15:39.988Z,1013.55
2017-09-05T05:16:48.655Z,1013.52
2017-09-05T05:17:57.657Z,1013.52
2017-09-05T05:19:06.947Z,1013.52
2017-09-05T05:20:15.596Z,1013.53
2017-09-05T05:21:24.572Z,1013.54
2017-09-05T05:22:34.187Z,1013.53
2017-09-05T05:23:43.639Z,1013.54
2017-09-05T05:24:52.751Z,1013.52
2017-09-05T05:26:02.723Z,1013.53
2017-09-05T05:27:11.801Z,1013.53
2017-09-05T05:28:21.094Z,1013.54
2017-09-05T05:29:30.730Z,1013.55
2017-09-05T05:30:39.391Z,1013.58
2017-09-05T05:31:48.350Z,1013.55
2017-09-05T05:32:57.622Z,1013.57
2017-09-05T05:34:07.223Z,1013.6
2017-09-05T05:35:16.618Z,1013.6
2017-09-05T05:36:25.282Z,1013.56
2017-09-05T05:37:34.663Z,1013.56
2017-09-05T05:38:43.952Z,1013.49
2017-09-05T05:39:53.601Z,1013.5
2017-09-05T05:41:02.930Z,1013.53
2017-09-05T05:42:12.198Z,1013.55
2017-09-05T05:43:21.181Z,1013.51
2017-09-05T05:44:30.640Z,1013.51
2017-09-05T05:45:41.090Z,1013.5
2017-09-05T05:46:50.691Z,1013.51
2017-09-05T05:48:00.241Z,1013.55
2017-09-05T05:49:09.215Z,1013.57
2017-09-05T05:50:18.185Z,1013.55
2017-09-05T05:51:27.149Z,1013.58
2017-09-05T05:52:36.124Z,1013.59
2017-09-05T05:53:45.723Z,1013.6
2017-09-05T05:54:54.680Z,1013.59
2017-09-05T05:56:03.344Z,1013.57
2017-09-05T05:57:12.318Z,1013.54
2017-09-05T05:58:21.435Z,1013.63
2017-09-05T05:59:30.415Z,1013.56
2017-09-05T06:00:39.431Z,1013.6
2017-09-05T06:01:49.026Z,1013.59
2017-09-05T06:02:57.691Z,1013.58
2017-09-05T06:04:07.026Z,1013.57
2017-09-05T06:05:15.985Z,1013.56
2017-09-05T06:06:24.957Z,1013.58
2017-09-05T06:07:34.245Z,1013.6
2017-09-05T06:08:43.273Z,1013.6
2017-09-05T06:09:52.708Z,1013.6
2017-09-05T06:11:02.389Z,1013.6
2017-09-05T06:12:11.726Z,1013.62
2017-09-05T06:13:21.034Z,1013.58
2017-09-05T06:14:30.540Z,1013.65
2017-09-05T06:15:40.046Z,1013.62
2017-09-05T06:16:50.855Z,1013.58
2017-09-05T06:17:59.504Z,1013.62
2017-09-05T06:19:09.114Z,1013.62
2017-09-05T06:20:18.078Z,1013.62
2017-09-05T06:21:27.132Z,1013.63
2017-09-05T06:22:35.778Z,1013.64
2017-09-05T06:23:45.071Z,1013.63
2017-09-05T06:24:54.030Z,1013.59
2017-09-05T06:26:02.667Z,1013.54
2017-09-05T06:27:11.419Z,1013.57
2017-09-05T06:28:20.077Z,1013.61
2017-09-05T06:29:29.046Z,1013.58
2017-09-05T06:30:37.696Z,1013.54
2017-09-05T06:31:46.652Z,1013.52
2017-09-05T06:32:56.085Z,1013.52
2017-09-05T06:34:04.740Z,1013.5
2017-09-05T06:35:13.692Z,1013.51
2017-09-05T06:36:22.364Z,1013.49
2017-09-05T06:37:31.685Z,1013.52
2017-09-05T06:38:40.479Z,1013.52
2017-09-05T06:39:49.447Z,1013.49
2017-09-05T06:40:58.430Z,1013.53
2017-09-05T06:42:07.353Z,1013.53
2017-09-05T06:43:16.934Z,1013.5
2017-09-05T06:44:26.303Z,1013.49
2017-09-05T06:45:35.007Z,1013.46
2017-09-05T06:46:44.340Z,1013.47
2017-09-05T06:47:53.632Z,1013.46
2017-09-05T06:49:02.273Z,1013.49
2017-09-05T06:50:11.968Z,1013.44
2017-09-05T06:51:21.269Z,1013.47
2017-09-05T06:52:30.282Z,1013.45
2017-09-05T06:53:39.270Z,1013.46
2017-09-05T06:54:48.598Z,1013.47
2017-09-05T06:55:57.359Z,1013.49
2017-09-05T06:57:06.640Z,1013.42
2017-09-05T06:58:15.920Z,1013.45
2017-09-05T06:59:24.565Z,1013.42
2017-09-05T07:00:33.541Z,1013.44
2017-09-05T07:01:42.816Z,1013.46
2017-09-05T07:02:52.135Z,1013.48
2017-09-05T07:04:02.812Z,1013.46
2017-09-05T07:05:11.831Z,1013.51
2017-09-05T07:06:21.639Z,1013.52
2017-09-05T07:07:31.136Z,1013.5
2017-09-05T07:08:40.835Z,1013.57
2017-09-05T07:09:49.786Z,1013.55
2017-09-05T07:10:58.777Z,1013.55
2017-09-05T07:12:07.433Z,1013.53
2017-09-05T07:13:16.545Z,1013.55
2017-09-05T07:14:25.817Z,1013.52
2017-09-05T07:15:35.099Z,1013.52
2017-09-05T07:16:43.744Z,1013.53
2017-09-05T07:17:52.703Z,1013.52
2017-09-05T07:19:01.712Z,1013.51
2017-09-05T07:20:11.001Z,1013.49
2017-09-05T07:21:19.677Z,1013.5
2017-09-05T07:22:28.955Z,1013.51
2017-09-05T07:23:37.624Z,1013.51
2017-09-05T07:24:46.686Z,1013.54
2017-09-05T07:25:55.671Z,1013.51
2017-09-05T07:27:04.320Z,1013.5
2017-09-05T07:28:13.603Z,1013.51
2017-09-05T07:29:23.193Z,1013.47
2017-09-05T07:30:32.517Z,1013.48
2017-09-05T07:31:41.505Z,1013.48
2017-09-05T07:32:50.473Z,1013.49
2017-09-05T07:33:59.445Z,1013.47
2017-09-05T07:35:08.415Z,1013.46
2017-09-05T07:36:17.524Z,1013.5
2017-09-05T07:37:26.167Z,1013.52
2017-09-05T07:38:34.817Z,1013.48
2017-09-05T07:39:43.787Z,1013.54
2017-09-05T07:40:52.753Z,1013.55
2017-09-05T07:42:02.056Z,1013.53
2017-09-05T07:43:10.700Z,1013.52
2017-09-05T07:44:20.604Z,1013.5
2017-09-05T07:45:29.881Z,1013.48
2017-09-05T07:46:39.201Z,1013.46
2017-09-05T07:47:48.941Z,1013.53
2017-09-05T07:48:57.595Z,1013.48
2017-09-05T07:50:06.559Z,1013.47
2017-09-05T07:51:15.514Z,1013.45
2017-09-05T07:52:24.470Z,1013.42
2017-09-05T07:53:33.211Z,1013.44
2017-09-05T07:54:42.170Z,1013.42
2017-09-05T07:55:51.444Z,1013.4
2017-09-05T07:57:00.409Z,1013.42
2017-09-05T07:58:10.313Z,1013.4
2017-09-05T07:59:19.326Z,1013.4
2017-09-05T08:00:28.610Z,1013.44
2017-09-05T08:01:37.573Z,1013.41
2017-09-05T08:02:46.540Z,1013.38
2017-09-05T08:03:55.824Z,1013.33
2017-09-05T08:05:05.211Z,1013.33
2017-09-05T08:06:14.175Z,1013.37
2017-09-05T08:07:23.151Z,1013.36
2017-09-05T08:08:32.177Z,1013.34
2017-09-05T08:09:41.457Z,1013.4
2017-09-05T08:10:50.111Z,1013.41
2017-09-05T08:11:59.409Z,1013.39
2017-09-05T08:13:08.071Z,1013.42
2017-09-05T08:14:16.725Z,1013.41
2017-09-05T08:15:25.383Z,1013.4
2017-09-05T08:16:34.502Z,1013.4
2017-09-05T08:17:44.415Z,1013.38
2017-09-05T08:18:53.700Z,1013.39
2017-09-05T08:20:02.676Z,1013.33
2017-09-05T08:21:11.641Z,1013.4
2017-09-05T08:22:20.724Z,1013.41
2017-09-05T08:23:30.069Z,1013.41
2017-09-05T08:24:38.751Z,1013.46
2017-09-05T08:25:47.421Z,1013.44
2017-09-05T08:26:56.397Z,1013.53
2017-09-05T08:28:05.498Z,1013.53
2017-09-05T08:29:14.809Z,1013.52
2017-09-05T08:30:23.769Z,1013.43
2017-09-05T08:31:32.421Z,1013.39
2017-09-05T08:32:41.086Z,1013.43
2017-09-05T08:33:50.211Z,1013.37
2017-09-05T08:34:58.875Z,1013.43
2017-09-05T08:36:07.533Z,1013.41
2017-09-05T08:37:16.504Z,1013.4
2017-09-05T08:38:25.782Z,1013.41
2017-09-05T08:39:34.586Z,1013.43
2017-09-05T08:40:43.555Z,1013.43
2017-09-05T08:41:52.213Z,1013.4
2017-09-05T08:43:01.508Z,1013.4
2017-09-05T08:44:10.174Z,1013.39
2017-09-05T08:45:19.304Z,1013.37
2017-09-05T08:46:28.267Z,1013.37
2017-09-05T08:47:37.565Z,1013.37
2017-09-05T08:48:46.541Z,1013.36
2017-09-05T08:49:55.506Z,1013.33
2017-09-05T08:51:04.156Z,1013.34
2017-09-05T08:52:13.121Z,1013.29
2017-09-05T08:53:22.399Z,1013.28
2017-09-05T08:54:31.367Z,1013.27
2017-09-05T08:55:40.357Z,1013.26
2017-09-05T08:56:49.431Z,1013.23
2017-09-05T08:57:58.490Z,1013.21
2017-09-05T08:59:07.769Z,1013.22
2017-09-05T09:00:16.731Z,1013.24
2017-09-05T09:01:26.012Z,1013.22
2017-09-05T09:02:35.658Z,1013.25
2017-09-05T09:03:44.648Z,1013.22
2017-09-05T09:04:54.235Z,1013.26
2017-09-05T09:06:03.210Z,1013.31
2017-09-05T09:07:11.868Z,1013.34
2017-09-05T09:08:21.298Z,1013.34
2017-09-05T09:09:30.331Z,1013.35
2017-09-05T09:10:39.308Z,1013.34
2017-09-05T09:11:48.605Z,1013.3
2017-09-05T09:12:57.589Z,1013.28
2017-09-05T09:14:07.314Z,1013.24
2017-09-05T09:15:16.274Z,1013.23
2017-09-05T09:16:24.936Z,1013.24
2017-09-05T09:17:33.899Z,1013.18
2017-09-05T09:18:42.868Z,1013.22
2017-09-05T09:20:23.924Z,1013.16
2017-09-05T09:21:33.214Z,1013.18
2017-09-05T09:22:41.874Z,1013.15
2017-09-05T09:23:51.170Z,1013.14
2017-09-05T09:25:00.143Z,1013.12
2017-09-05T09:26:09.738Z,1013.12
2017-09-05T09:27:19.026Z,1013.1
2017-09-05T09:28:27.983Z,1013.12
2017-09-05T09:29:36.947Z,1013.13
2017-09-05T09:30:45.612Z,1013.12
2017-09-05T09:31:54.898Z,1013.1
2017-09-05T09:33:04.190Z,1013.19
2017-09-05T09:34:13.199Z,1013.16
2017-09-05T09:35:22.163Z,1013.15
2017-09-05T09:36:31.207Z,1013.19
2017-09-05T09:37:39.868Z,1013.15
2017-09-05T09:38:48.835Z,1013.13
2017-09-05T09:39:57.809Z,1013.09
2017-09-05T09:41:06.469Z,1013.16
2017-09-05T09:42:15.457Z,1013.09
2017-09-05T09:43:24.786Z,1013.09
2017-09-05T09:44:33.742Z,1013.1
2017-09-05T09:45:42.388Z,1013.03
2017-09-05T09:46:51.973Z,1013.03
2017-09-05T09:48:01.266Z,1013.03
2017-09-05T09:49:09.980Z,1013
2017-09-05T09:50:18.953Z,1013.05
2017-09-05T09:51:28.245Z,1013.04
2017-09-05T09:52:38.161Z,1013.03
2017-09-05T09:53:47.123Z,1013.01
2017-09-05T09:54:55.779Z,1013.01
2017-09-05T09:56:05.432Z,1013.03
2017-09-05T09:57:14.710Z,1013.03
2017-09-05T09:58:23.681Z,1013.05
2017-09-05T09:59:32.964Z,1012.99
2017-09-05T10:00:42.257Z,1013
2017-09-05T10:01:51.543Z,1012.99
2017-09-05T10:03:00.833Z,1012.96
2017-09-05T10:04:09.481Z,1012.93
2017-09-05T10:05:18.809Z,1012.92
2017-09-05T10:06:28.427Z,1012.89
2017-09-05T10:07:37.753Z,1012.88
2017-09-05T10:08:47.060Z,1012.86
2017-09-05T10:09:56.030Z,1012.84
2017-09-05T10:11:04.679Z,1012.84
2017-09-05T10:12:13.661Z,1012.8
2017-09-05T10:13:22.317Z,1012.77
2017-09-05T10:14:31.604Z,1012.79
2017-09-05T10:15:40.894Z,1012.76
2017-09-05T10:16:49.876Z,1012.76
2017-09-05T10:17:59.468Z,1012.77
2017-09-05T10:19:08.436Z,1012.76
2017-09-05T10:20:17.091Z,1012.75
2017-09-05T10:21:26.374Z,1012.64
2017-09-05T10:22:35.675Z,1012.69
2017-09-05T10:23:44.963Z,1012.64
2017-09-05T10:24:53.924Z,1012.62
2017-09-05T10:26:03.203Z,1012.64
2017-09-05T10:27:12.803Z,1012.65
2017-09-05T10:28:22.401Z,1012.7
2017-09-05T10:29:31.691Z,1012.67
2017-09-05T10:30:40.987Z,1012.65
2017-09-05T10:31:49.953Z,1012.6
2017-09-05T10:32:59.294Z,1012.69
2017-09-05T10:34:08.570Z,1012.64
2017-09-05T10:35:17.851Z,1012.6
2017-09-05T10:36:26.835Z,1012.6
2017-09-05T10:37:35.816Z,1012.59
2017-09-05T10:38:44.461Z,1012.54
2017-09-05T10:39:53.454Z,1012.53
2017-09-05T10:41:02.569Z,1012.48
2017-09-05T10:42:11.237Z,1012.49
2017-09-05T10:43:20.235Z,1012.5
2017-09-05T10:44:29.197Z,1012.56
2017-09-05T10:45:38.810Z,1012.49
2017-09-05T10:46:47.482Z,1012.51
2017-09-05T10:47:56.446Z,1012.51
2017-09-05T10:49:05.123Z,1012.52
2017-09-05T10:50:13.786Z,1012.49
2017-09-05T10:51:22.757Z,1012.45
2017-09-05T10:52:32.066Z,1012.45
2017-09-05T10:53:40.725Z,1012.46
2017-09-05T10:54:50.649Z,1012.46
2017-09-05T10:55:59.307Z,1012.43
2017-09-05T10:57:08.016Z,1012.46
2017-09-05T10:58:17.350Z,1012.45
2017-09-05T10:59:26.313Z,1012.44
2017-09-05T11:00:35.902Z,1012.47
2017-09-05T11:01:45.227Z,1012.46
2017-09-05T11:02:55.154Z,1012.45
2017-09-05T11:04:04.154Z,1012.46
2017-09-05T11:05:13.431Z,1012.42
2017-09-05T11:06:22.393Z,1012.42
2017-09-05T11:07:31.671Z,1012.37
2017-09-05T11:08:40.669Z,1012.38
2017-09-05T11:09:50.598Z,1012.36
2017-09-05T11:11:00.184Z,1012.46
2017-09-05T11:12:09.160Z,1012.45
2017-09-05T11:13:18.444Z,1012.45
2017-09-05T11:14:27.731Z,1012.44
2017-09-05T11:15:37.073Z,1012.42
2017-09-05T11:16:46.352Z,1012.44
2017-09-05T11:17:55.033Z,1012.42
2017-09-05T11:19:04.332Z,1012.42
2017-09-05T11:20:13.313Z,1012.46
2017-09-05T11:21:22.272Z,1012.46
2017-09-05T11:22:31.567Z,1012.43
2017-09-05T11:23:40.220Z,1012.4
2017-09-05T11:24:48.871Z,1012.36
2017-09-05T11:25:58.477Z,1012.38
2017-09-05T11:27:07.446Z,1012.4
2017-09-05T11:28:16.091Z,1012.41
2017-09-05T11:29:25.057Z,1012.37
2017-09-05T11:30:34.026Z,1012.34
2017-09-05T11:31:43.330Z,1012.37
2017-09-05T11:32:51.978Z,1012.42
2017-09-05T11:34:00.954Z,1012.41
2017-09-05T11:35:10.230Z,1012.36
2017-09-05T11:36:19.215Z,1012.36
2017-09-05T11:37:28.193Z,1012.33
2017-09-05T11:38:37.471Z,1012.3
2017-09-05T11:39:46.125Z,1012.31
2017-09-05T11:40:55.115Z,1012.31
2017-09-05T11:42:04.407Z,1012.33
2017-09-05T11:43:13.699Z,1012.3
2017-09-05T11:44:22.663Z,1012.29
2017-09-05T11:45:31.951Z,1012.26
2017-09-05T11:46:40.913Z,1012.27
2017-09-05T11:47:49.875Z,1012.28
2017-09-05T11:48:59.155Z,1012.26
2017-09-05T11:50:08.116Z,1012.27
2017-09-05T11:51:17.418Z,1012.25
2017-09-05T11:52:26.094Z,1012.23
2017-09-05T11:53:35.059Z,1012.26
2017-09-05T11:54:44.037Z,1012.26
2017-09-05T11:55:53.001Z,1012.23
2017-09-05T11:57:02.286Z,1012.2
2017-09-05T11:58:10.933Z,1012.2
2017-09-05T11:59:19.908Z,1012.22
2017-09-05T12:00:28.869Z,1012.26
2017-09-05T12:01:37.841Z,1012.26
2017-09-05T12:02:46.820Z,1012.33
2017-09-05T12:03:55.795Z,1012.32
2017-09-05T12:05:04.466Z,1012.31
2017-09-05T12:06:14.057Z,1012.29
2017-09-05T12:07:22.713Z,1012.26
2017-09-05T12:08:31.990Z,1012.25
2017-09-05T12:09:40.968Z,1012.25
2017-09-05T12:10:49.637Z,1012.23
2017-09-05T12:11:58.918Z,1012.25
2017-09-05T12:13:08.534Z,1012.19
2017-09-05T12:14:18.131Z,1012.19
2017-09-05T12:15:27.431Z,1012.23
2017-09-05T12:16:36.718Z,1012.24
2017-09-05T12:17:46.616Z,1012.19
2017-09-05T12:18:55.919Z,1012.18
2017-09-05T12:20:04.884Z,1012.2
2017-09-05T12:21:14.165Z,1012.16
2017-09-05T12:22:23.445Z,1012.14
2017-09-05T12:23:32.242Z,1012.16
2017-09-05T12:24:41.206Z,1012.18
2017-09-05T12:25:49.863Z,1012.14
2017-09-05T12:26:59.159Z,1012.15
2017-09-05T12:28:08.458Z,1012.15
2017-09-05T12:29:17.115Z,1012.13
2017-09-05T12:30:25.771Z,1012.11
2017-09-05T12:31:34.495Z,1012.12
2017-09-05T12:32:43.777Z,1012.11
2017-09-05T12:33:52.510Z,1012.11
2017-09-05T12:35:01.164Z,1012.07
2017-09-05T12:36:10.443Z,1012.09
2017-09-05T12:37:19.417Z,1012.08
2017-09-05T12:38:28.388Z,1012.07
2017-09-05T12:39:37.042Z,1012.05
2017-09-05T12:40:46.703Z,1012.05
2017-09-05T12:41:56.297Z,1012.04
2017-09-05T12:43:06.221Z,1012.05
2017-09-05T12:44:15.205Z,1012.04
2017-09-05T12:45:24.167Z,1012.01
2017-09-05T12:46:33.467Z,1012
2017-09-05T12:47:42.431Z,1012.03
2017-09-05T12:48:51.725Z,1012.07
2017-09-05T12:50:00.394Z,1012.05
2017-09-05T12:51:09.996Z,1012.05
2017-09-05T12:52:19.305Z,1012.07
2017-09-05T12:53:27.970Z,1012.05
2017-09-05T12:54:37.258Z,1012.1
2017-09-05T12:55:46.533Z,1012.1
2017-09-05T12:56:55.827Z,1012.09
2017-09-05T12:58:04.547Z,1012.08
2017-09-05T12:59:13.200Z,1012.09
2017-09-05T13:00:22.163Z,1012.1
2017-09-05T13:01:30.825Z,1012.09
2017-09-05T13:02:39.495Z,1012.09
2017-09-05T13:03:48.149Z,1012.11
2017-09-05T13:04:57.429Z,1012.1
2017-09-05T13:06:06.086Z,1012.1
2017-09-05T13:07:15.387Z,1012.09
2017-09-05T13:08:24.034Z,1012.07
2017-09-05T13:09:33.042Z,1012.09
2017-09-05T13:10:41.720Z,1012.09
2017-09-05T13:11:51.015Z,1012.08
2017-09-05T13:13:00.294Z,1012.06
2017-09-05T13:14:09.594Z,1012.06
2017-09-05T13:15:18.580Z,1012.06
2017-09-05T13:16:27.548Z,1012.04
2017-09-05T13:17:36.522Z,1012.06
2017-09-05T13:18:45.180Z,1012.02
2017-09-05T13:19:54.788Z,1012
2017-09-05T13:21:03.443Z,1011.97
2017-09-05T13:22:13.029Z,1011.95
2017-09-05T13:23:21.990Z,1011.94
2017-09-05T13:24:31.590Z,1011.92
2017-09-05T13:25:40.261Z,1011.92
2017-09-05T13:26:49.230Z,1011.91
2017-09-05T13:27:58.198Z,1011.91
2017-09-05T13:29:07.497Z,1011.91
2017-09-05T13:30:16.485Z,1011.87
2017-09-05T13:31:26.103Z,1011.84
2017-09-05T13:32:35.727Z,1011.8
2017-09-05T13:33:45.005Z,1011.79
2017-09-05T13:34:54.295Z,1011.76
2017-09-05T13:36:03.255Z,1011.77
2017-09-05T13:37:12.034Z,1011.75
2017-09-05T13:38:21.003Z,1011.75
2017-09-05T13:39:29.683Z,1011.72
2017-09-05T13:40:38.804Z,1011.73
2017-09-05T13:41:48.480Z,1011.74
2017-09-05T13:42:57.453Z,1011.76
2017-09-05T13:44:06.432Z,1011.74
2017-09-05T13:45:15.714Z,1011.76
2017-09-05T13:46:25.026Z,1011.75
2017-09-05T13:47:33.698Z,1011.75
2017-09-05T13:48:43.038Z,1011.73
2017-09-05T13:49:51.698Z,1011.73
2017-09-05T13:51:01.011Z,1011.77
2017-09-05T13:52:09.675Z,1011.75
2017-09-05T13:53:18.770Z,1011.75
2017-09-05T13:54:27.768Z,1011.73
2017-09-05T13:55:37.739Z,1011.73
2017-09-05T13:56:46.739Z,1011.75
2017-09-05T13:57:55.710Z,1011.76
2017-09-05T13:59:04.699Z,1011.73